Time;durP1;ratioP1;P1;durP2;ratioP2;P2;SDS_P1;SDS_P2;PMS_P1;PMS_P2;Temp;Humidity;BMP_temperature;BMP_pressure;BME280_temperature;BME280_humidity;BME280_pressure;Samples;Min_cycle;Max_cycle;Signal;HPM_P1;HPM_P2
2022/11/09 00:00:14;;;;;;;64.00;23.52;;;7.50;99.90;;;;;;5116705;28;20029;-78
2022/11/09 00:03:17;;;;;;;74.07;25.13;;;7.50;99.90;;;;;;5117217;28;20038;-78
2022/11/09 00:08:47;;;;;;;73.07;23.70;;;7.50;99.90;;;;;;5095031;28;20067;-78
2022/11/09 00:14:58;;;;;;;64.30;23.00;;;7.60;99.90;;;;;;5116648;28;20030;-79
2022/11/09 00:20:46;;;;;;;67.28;24.42;;;7.50;99.90;;;;;;5115253;28;20038;-79
2022/11/09 00:26:36;;;;;;;62.22;23.00;;;7.50;99.90;;;;;;5095461;28;20039;-79
2022/11/09 00:29:02;;;;;;;72.10;23.30;;;7.50;99.90;;;;;;5095016;28;20039;-78
2022/11/09 00:31:27;;;;;;;69.10;24.83;;;7.50;99.90;;;;;;5095534;28;20028;-79
2022/11/09 00:33:54;;;;;;;67.90;24.92;;;7.50;99.90;;;;;;5095653;28;20032;-78
2022/11/09 00:36:22;;;;;;;74.03;24.67;;;7.50;99.90;;;;;;5095566;28;20035;-79
2022/11/09 00:38:51;;;;;;;69.95;24.50;;;7.50;99.90;;;;;;5076465;28;20024;-79
2022/11/09 00:41:18;;;;;;;77.75;24.15;;;7.50;99.90;;;;;;5077109;28;20107;-78
2022/11/09 00:43:43;;;;;;;66.65;23.83;;;7.50;99.90;;;;;;5077575;28;20034;-78
2022/11/09 00:46:09;;;;;;;69.95;24.13;;;7.50;99.90;;;;;;5095430;28;20027;-79
2022/11/09 00:48:35;;;;;;;68.80;25.05;;;7.60;99.90;;;;;;5094945;28;20024;-78
2022/11/09 00:51:02;;;;;;;66.35;24.77;;;7.60;99.90;;;;;;5078352;28;20080;-78
2022/11/09 00:53:28;;;;;;;69.75;24.50;;;7.60;99.90;;;;;;5097502;28;20028;-78
2022/11/09 00:59:28;;;;;;;68.72;22.92;;;7.60;99.90;;;;;;5097240;28;20023;-78
2022/11/09 01:05:47;;;;;;;70.28;24.30;;;7.70;99.90;;;;;;5096676;28;20125;-78
2022/11/09 01:11:48;;;;;;;72.20;24.98;;;7.70;99.90;;;;;;5096767;28;20062;-78
2022/11/09 01:14:52;;;;;;;64.65;24.38;;;7.70;99.90;;;;;;5078975;28;20525;-78
2022/11/09 01:17:18;;;;;;;66.20;24.27;;;7.70;99.90;;;;;;5078974;28;20028;-78
2022/11/09 01:19:43;;;;;;;64.88;23.38;;;7.70;99.90;;;;;;5078025;28;20403;-78
2022/11/09 01:22:09;;;;;;;66.57;26.27;;;7.70;99.90;;;;;;5085312;28;20138;-78
2022/11/09 01:24:40;;;;;;;68.63;23.00;;;7.70;99.90;;;;;;5096111;28;20052;-78
2022/11/09 01:31:13;;;;;;;81.03;25.33;;;7.70;99.90;;;;;;5095623;28;20019;-79
2022/11/09 01:37:02;;;;;;;75.63;24.92;;;7.70;99.90;;;;;;5095875;28;20117;-78
2022/11/09 01:46:51;;;;;;;77.90;25.98;;;7.80;99.90;;;;;;5096474;28;20040;-78
2022/11/09 01:52:35;;;;;;;81.28;26.77;;;7.80;99.90;;;;;;5099222;28;20119;-78
2022/11/09 01:58:32;;;;;;;94.20;28.25;;;7.80;99.90;;;;;;5098670;28;20027;-78
2022/11/09 02:04:48;;;;;;;98.30;29.73;;;7.80;99.90;;;;;;5098092;28;20051;-78
2022/11/09 02:07:14;;;;;;;103.00;30.23;;;7.80;99.90;;;;;;5098489;28;20472;-78
2022/11/09 02:16:14;;;;;;;102.03;29.17;;;7.80;99.90;;;;;;5097510;28;20035;-78
2022/11/09 02:18:57;;;;;;;96.03;27.20;;;7.80;99.90;;;;;;5097538;28;20519;-78
2022/11/09 02:21:28;;;;;;;91.43;27.52;;;7.80;99.90;;;;;;5079094;28;20122;-78
2022/11/09 02:24:50;;;;;;;89.88;27.02;;;7.80;99.90;;;;;;5088810;28;20156;-78
2022/11/09 02:35:20;;;;;;;90.70;26.73;;;7.80;99.90;;;;;;5097099;28;20028;-78
2022/11/09 02:42:21;;;;;;;97.18;27.58;;;7.90;99.90;;;;;;5097001;28;20050;-78
2022/11/09 02:45:14;;;;;;;87.00;26.27;;;7.90;99.90;;;;;;5078402;28;20028;-78
2022/11/09 02:47:39;;;;;;;96.40;28.25;;;7.90;99.90;;;;;;5078067;28;20036;-78
2022/11/09 02:50:05;;;;;;;89.90;28.05;;;7.90;99.90;;;;;;5078386;28;20031;-78
2022/11/09 02:52:54;;;;;;;82.82;26.27;;;8.00;99.90;;;;;;5078963;28;20081;-78
2022/11/09 03:02:12;;;;;;;92.78;28.50;;;8.00;99.90;;;;;;5095707;28;20471;-78
2022/11/09 03:04:38;;;;;;;84.80;26.90;;;8.00;99.90;;;;;;5077956;28;20024;-78
2022/11/09 03:07:03;;;;;;;96.55;27.38;;;8.00;99.90;;;;;;5095978;28;20039;-78
2022/11/09 03:09:29;;;;;;;93.53;26.80;;;8.00;99.90;;;;;;5078797;28;20035;-78
2022/11/09 03:12:27;;;;;;;82.25;27.83;;;8.00;99.90;;;;;;5078935;28;20463;-78
2022/11/09 03:14:51;;;;;;;86.25;27.15;;;8.00;99.90;;;;;;5094447;28;20383;-78
2022/11/09 03:17:26;;;;;;;91.18;27.10;;;8.00;99.90;;;;;;5080188;28;20020;-78
2022/11/09 03:19:53;;;;;;;96.78;29.58;;;8.00;99.90;;;;;;5098766;28;20031;-78
2022/11/09 03:22:20;;;;;;;102.78;27.27;;;8.00;99.90;;;;;;5080393;28;20024;-78
2022/11/09 03:24:46;;;;;;;87.35;27.70;;;8.00;99.90;;;;;;5099538;27;20047;-78
2022/11/09 03:28:01;;;;;;;98.00;28.83;;;8.00;99.90;;;;;;5081081;28;20031;-78
2022/11/09 03:33:50;;;;;;;93.22;28.55;;;8.10;99.90;;;;;;5097570;28;20042;-78
2022/11/09 03:36:33;;;;;;;105.75;28.77;;;8.00;99.90;;;;;;5097495;28;20031;-78
2022/11/09 03:38:59;;;;;;;100.93;28.73;;;8.10;99.90;;;;;;5096411;28;20093;-77
2022/11/09 03:41:24;;;;;;;99.60;29.00;;;8.00;99.90;;;;;;5096582;28;20376;-78
2022/11/09 03:47:23;;;;;;;91.90;27.23;;;8.10;99.90;;;;;;5096842;28;20468;-78
2022/11/09 03:53:21;;;;;;;98.32;31.48;;;8.10;99.90;;;;;;5096350;28;20077;-77
2022/11/09 04:02:35;;;;;;;109.65;30.83;;;8.10;99.90;;;;;;5095798;28;20032;-78
2022/11/09 04:05:00;;;;;;;106.13;28.42;;;8.10;99.90;;;;;;5095719;28;20093;-78
2022/11/09 04:07:26;;;;;;;93.32;29.60;;;8.10;99.90;;;;;;5095531;28;20024;-78
2022/11/09 04:09:57;;;;;;;110.03;31.33;;;8.10;99.90;;;;;;5077896;28;20044;-78
2022/11/09 04:15:45;;;;;;;101.00;28.92;;;8.10;99.90;;;;;;5095963;28;20375;-77
2022/11/09 04:28:27;;;;;;;101.60;28.75;;;8.10;99.90;;;;;;5115907;28;20090;-77
2022/11/09 04:35:02;;;;;;;106.07;30.08;;;8.20;99.90;;;;;;5115682;28;20028;-78
2022/11/09 04:40:39;;;;;;;97.30;28.25;;;8.20;99.90;;;;;;5115089;28;19911;-78
2022/11/09 04:50:49;;;;;;;106.50;29.45;;;8.20;99.90;;;;;;5115406;28;20502;-78
2022/11/09 04:56:36;;;;;;;103.68;28.67;;;8.20;99.90;;;;;;5114438;28;20088;-78
2022/11/09 05:03:25;;;;;;;100.22;30.67;;;8.20;99.90;;;;;;5114716;28;20092;-78
2022/11/09 05:09:27;;;;;;;109.80;31.83;;;8.20;99.90;;;;;;5114737;28;20057;-78
2022/11/09 05:11:53;;;;;;;115.72;32.15;;;8.20;99.90;;;;;;5114661;28;20043;-75
2022/11/09 05:14:18;;;;;;;115.40;32.17;;;8.20;99.90;;;;;;5096401;28;20028;-76
2022/11/09 05:16:44;;;;;;;109.90;31.27;;;8.20;99.90;;;;;;5096346;28;20046;-79
2022/11/09 05:19:10;;;;;;;113.13;31.58;;;8.20;99.90;;;;;;5114411;28;20059;-80
2022/11/09 05:21:35;;;;;;;109.63;33.35;;;8.20;99.90;;;;;;5097599;28;20035;-80
2022/11/09 05:24:01;;;;;;;108.28;31.80;;;8.20;99.90;;;;;;5096322;28;20031;-79
2022/11/09 05:26:33;;;;;;;96.93;30.98;;;8.30;99.90;;;;;;5120446;28;20039;-79
2022/11/09 05:29:01;;;;;;;98.05;31.38;;;8.20;99.90;;;;;;5118833;28;20493;-81
2022/11/09 05:31:27;;;;;;;97.70;32.67;;;8.30;99.90;;;;;;5100733;28;20066;-80
2022/11/09 05:33:54;;;;;;;94.00;31.48;;;8.30;99.90;;;;;;5102292;28;20055;-82
2022/11/09 05:36:20;;;;;;;102.63;32.75;;;8.30;99.90;;;;;;5104455;28;20020;-81
2022/11/09 05:38:46;;;;;;;100.60;31.35;;;8.30;99.90;;;;;;5122444;28;20028;-81
2022/11/09 05:41:13;;;;;;;91.68;33.05;;;8.40;99.90;;;;;;5123305;28;20023;-83
2022/11/09 05:43:38;;;;;;;88.00;30.83;;;8.40;99.90;;;;;;5102852;28;20046;-78
2022/11/09 05:46:04;;;;;;;101.80;32.22;;;8.40;99.90;;;;;;5102729;28;20476;-78
2022/11/09 05:48:30;;;;;;;96.03;31.13;;;8.40;99.90;;;;;;5118863;28;20019;-78
2022/11/09 05:51:00;;;;;;;97.47;31.17;;;8.40;99.90;;;;;;5118155;28;20097;-78
2022/11/09 05:53:25;;;;;;;95.82;33.58;;;8.40;99.90;;;;;;5100470;28;20028;-79
2022/11/09 05:55:51;;;;;;;96.93;31.95;;;8.40;99.90;;;;;;5100135;28;20349;-75
2022/11/09 05:58:17;;;;;;;94.43;32.80;;;8.40;99.90;;;;;;5118831;28;20032;-78
2022/11/09 06:00:42;;;;;;;109.65;32.75;;;8.40;99.90;;;;;;5099726;28;20028;-78
2022/11/09 06:03:10;;;;;;;93.65;33.05;;;8.40;99.90;;;;;;5099819;28;20123;-78
2022/11/09 06:05:51;;;;;;;89.85;32.15;;;8.40;99.90;;;;;;5099461;28;20570;-78
2022/11/09 06:08:17;;;;;;;90.95;33.63;;;8.40;99.90;;;;;;5119652;28;20471;-78
2022/11/09 06:10:43;;;;;;;90.32;32.22;;;8.40;99.90;;;;;;5119841;28;20028;-78
2022/11/09 06:13:10;;;;;;;89.63;32.72;;;8.40;99.90;;;;;;5102545;28;20042;-78
2022/11/09 06:15:36;;;;;;;85.07;30.95;;;8.40;99.90;;;;;;5101450;28;20019;-78
2022/11/09 06:18:02;;;;;;;91.93;31.67;;;8.40;99.90;;;;;;5102268;28;20380;-78
2022/11/09 06:20:37;;;;;;;85.88;31.17;;;8.40;99.90;;;;;;5120622;28;20027;-78
2022/11/09 06:26:25;;;;;;;100.10;31.55;;;8.50;99.90;;;;;;5099420;28;20078;-78
2022/11/09 06:28:50;;;;;;;86.13;31.17;;;8.50;99.90;;;;;;5080057;28;20056;-78
2022/11/09 06:31:17;;;;;;;87.88;32.05;;;8.50;99.90;;;;;;5098418;28;20082;-78
2022/11/09 06:37:18;;;;;;;82.97;31.17;;;8.50;99.90;;;;;;5095963;28;20161;-77
2022/11/09 06:40:18;;;;;;;86.40;31.42;;;8.50;99.90;;;;;;5079136;28;20070;-78
2022/11/09 06:42:43;;;;;;;88.70;30.55;;;8.50;99.90;;;;;;5080749;28;20028;-78
2022/11/09 06:45:09;;;;;;;84.50;31.15;;;8.50;99.90;;;;;;5080131;28;20036;-78
2022/11/09 06:47:35;;;;;;;86.72;30.42;;;8.50;99.90;;;;;;5096984;28;20105;-78
2022/11/09 06:50:00;;;;;;;81.95;28.63;;;8.50;99.90;;;;;;5079435;28;20030;-78
2022/11/09 06:52:36;;;;;;;81.78;28.50;;;8.50;99.90;;;;;;5079260;28;20032;-78
2022/11/09 06:55:04;;;;;;;86.75;28.95;;;8.50;99.90;;;;;;5078853;28;20020;-78
2022/11/09 06:57:29;;;;;;;84.00;29.50;;;8.50;99.90;;;;;;5098054;28;20071;-78
2022/11/09 06:59:55;;;;;;;77.20;28.67;;;8.50;99.90;;;;;;5097056;28;20081;-78
2022/11/09 07:02:28;;;;;;;77.50;28.13;;;8.50;99.90;;;;;;5079010;28;20032;-78
2022/11/09 07:08:16;;;;;;;68.57;26.20;;;8.50;99.90;;;;;;5097223;28;20027;-78
2022/11/09 07:14:08;;;;;;;66.40;25.17;;;8.50;99.90;;;;;;5097972;28;20069;-78
2022/11/09 07:16:36;;;;;;;68.65;25.48;;;8.50;99.90;;;;;;5079535;28;20032;-78
2022/11/09 07:19:02;;;;;;;63.28;24.95;;;8.50;99.90;;;;;;5098109;28;20035;-78
2022/11/09 07:21:27;;;;;;;64.13;25.65;;;8.50;99.90;;;;;;5097368;28;20443;-78
2022/11/09 07:24:21;;;;;;;61.58;24.55;;;8.50;99.90;;;;;;5097248;28;20459;-78
2022/11/09 07:30:18;;;;;;;58.25;22.55;;;8.50;99.90;;;;;;5096927;28;20137;-78
2022/11/09 07:33:31;;;;;;;61.00;24.13;;;8.60;99.90;;;;;;5096728;28;20024;-78
2022/11/09 07:36:01;;;;;;;49.63;21.65;;;8.60;99.90;;;;;;5079357;28;20024;-78
2022/11/09 07:38:30;;;;;;;58.65;24.90;;;8.60;99.90;;;;;;5097674;28;20031;-78
2022/11/09 07:41:00;;;;;;;49.08;21.98;;;8.70;99.90;;;;;;5098530;28;20356;-78
2022/11/09 07:43:26;;;;;;;62.45;23.08;;;8.70;99.90;;;;;;5098351;28;20455;-78
2022/11/09 07:45:52;;;;;;;59.60;23.52;;;8.70;99.90;;;;;;5097752;28;20387;-78
2022/11/09 07:48:18;;;;;;;55.08;23.35;;;8.70;99.90;;;;;;5097032;28;20024;-78
2022/11/09 07:51:43;;;;;;;61.88;23.58;;;8.70;99.90;;;;;;5097830;28;20036;-78
2022/11/09 07:58:02;;;;;;;51.45;22.67;;;8.80;99.90;;;;;;5097523;28;20019;-78
2022/11/09 08:04:20;;;;;;;55.58;23.35;;;8.80;99.90;;;;;;5097035;28;20027;-78
2022/11/09 08:07:42;;;;;;;56.55;23.05;;;8.80;99.90;;;;;;5096479;28;20032;-78
2022/11/09 08:10:09;;;;;;;62.92;24.45;;;8.90;99.90;;;;;;5078797;28;20024;-78
2022/11/09 08:12:34;;;;;;;54.63;23.05;;;8.90;99.90;;;;;;5095061;28;20515;-78
2022/11/09 08:15:32;;;;;;;58.42;24.77;;;8.90;99.90;;;;;;5095486;28;20055;-78
2022/11/09 08:18:00;;;;;;;53.90;22.45;;;8.90;99.90;;;;;;5094363;28;20056;-78
2022/11/09 08:20:25;;;;;;;55.17;23.13;;;8.90;99.90;;;;;;5094773;28;20387;-78
2022/11/09 08:23:19;;;;;;;55.17;23.70;;;9.00;99.90;;;;;;5094862;28;20042;-78
2022/11/09 08:26:12;;;;;;;59.83;24.05;;;9.00;99.90;;;;;;5068064;28;20462;-78
2022/11/09 08:28:38;;;;;;;63.10;24.08;;;8.90;99.90;;;;;;5077049;28;20474;-79
2022/11/09 08:31:05;;;;;;;57.85;26.23;;;8.90;99.90;;;;;;5077400;28;20035;-78
2022/11/09 08:33:38;;;;;;;70.45;28.30;;;8.90;99.90;;;;;;5094560;28;20460;-79
2022/11/09 08:39:32;;;;;;;67.47;25.80;;;8.90;99.90;;;;;;5094734;28;20073;-78
2022/11/09 08:41:58;;;;;;;62.10;26.40;;;8.90;99.90;;;;;;5094167;28;20463;-78
2022/11/09 08:44:24;;;;;;;62.80;25.88;;;8.90;99.90;;;;;;5094458;28;20028;-78
2022/11/09 08:47:05;;;;;;;56.33;22.85;;;8.90;99.90;;;;;;5076245;28;20539;-79
2022/11/09 08:52:56;;;;;;;51.65;23.52;;;9.00;99.90;;;;;;5094634;28;20541;-78
2022/11/09 08:59:10;;;;;;;56.53;23.33;;;8.90;99.90;;;;;;5094671;28;20131;-78
2022/11/09 09:01:35;;;;;;;53.30;23.17;;;9.00;99.90;;;;;;5075974;28;20024;-78
2022/11/09 09:04:01;;;;;;;51.55;22.02;;;9.00;99.90;;;;;;5094170;28;20031;-79
2022/11/09 09:06:27;;;;;;;54.92;22.90;;;9.00;99.90;;;;;;5094781;28;20028;-78
2022/11/09 09:12:36;;;;;;;52.78;22.05;;;8.80;99.90;;;;;;5094489;28;20031;-79
2022/11/09 09:15:03;;;;;;;52.15;22.25;;;8.80;99.90;;;;;;5076811;28;20055;-79
2022/11/09 09:17:28;;;;;;;46.33;19.63;;;8.90;99.90;;;;;;5075821;28;20020;-78
2022/11/09 09:20:10;;;;;;;42.95;19.77;;;8.90;99.90;;;;;;5094452;28;20078;-78
2022/11/09 09:26:06;;;;;;;45.70;20.85;;;8.90;99.90;;;;;;5096826;28;20055;-78
2022/11/09 09:28:32;;;;;;;46.70;20.15;;;8.90;99.90;;;;;;5076316;28;20120;-79
2022/11/09 09:30:59;;;;;;;45.15;19.33;;;8.90;99.90;;;;;;5076160;28;20074;-79
2022/11/09 09:33:25;;;;;;;43.70;19.98;;;8.90;99.90;;;;;;5093897;28;20047;-79
2022/11/09 09:35:55;;;;;;;42.45;18.45;;;8.90;99.90;;;;;;5076638;28;20032;-79
2022/11/09 09:38:21;;;;;;;41.33;18.00;;;9.00;99.90;;;;;;5076217;28;20028;-79
2022/11/09 09:50:51;;;;;;;34.83;16.42;;;8.80;99.90;;;;;;5093774;28;20023;-78
2022/11/09 09:57:17;;;;;;;42.33;18.23;;;8.90;99.90;;;;;;5093743;28;20082;-79
2022/11/09 10:03:39;;;;;;;41.25;17.38;;;9.00;99.90;;;;;;5093428;28;20062;-79
2022/11/09 10:19:40;;;;;;;35.90;16.17;;;9.00;99.90;;;;;;5096971;28;20078;-79
2022/11/09 10:22:05;;;;;;;34.53;16.73;;;9.10;99.90;;;;;;5079671;28;20020;-79
2022/11/09 10:24:50;;;;;;;35.25;16.55;;;9.10;99.90;;;;;;5078634;28;20517;-79
2022/11/09 10:27:35;;;;;;;39.00;15.73;;;9.20;99.90;;;;;;5117231;28;20035;-79
2022/11/09 10:36:50;;;;;;;27.40;13.70;;;9.30;99.90;;;;;;5117042;28;20416;-79
2022/11/09 10:39:16;;;;;;;33.30;15.57;;;9.30;99.90;;;;;;5115293;28;20032;-79
2022/11/09 10:41:46;;;;;;;33.15;15.18;;;9.40;99.90;;;;;;5098261;28;20080;-79
2022/11/09 10:47:50;;;;;;;28.90;13.23;;;9.50;99.90;;;;;;5116901;28;20026;-78
2022/11/09 10:54:17;;;;;;;27.92;13.02;;;9.40;99.90;;;;;;5116426;28;20054;-79
2022/11/09 11:00:16;;;;;;;25.90;12.75;;;9.50;99.90;;;;;;5116598;28;20069;-79
2022/11/09 11:02:45;;;;;;;25.38;12.88;;;9.50;99.90;;;;;;5098898;28;20131;-79
2022/11/09 11:05:13;;;;;;;26.77;14.50;;;9.50;99.90;;;;;;5098002;28;20023;-79
2022/11/09 11:07:39;;;;;;;28.60;12.80;;;9.50;99.90;;;;;;5116759;28;20463;-80
2022/11/09 11:13:26;;;;;;;25.10;13.15;;;9.50;99.90;;;;;;5116477;28;20034;-79
2022/11/09 11:15:52;;;;;;;23.08;12.77;;;9.60;99.90;;;;;;5098010;28;20027;-79
2022/11/09 11:18:22;;;;;;;26.23;12.75;;;9.60;99.90;;;;;;5115742;28;20024;-80
2022/11/09 11:24:15;;;;;;;36.80;15.35;;;9.60;99.90;;;;;;5109010;28;20081;-79
2022/11/09 11:27:03;;;;;;;34.67;15.07;;;9.60;99.90;;;;;;5097693;28;20053;-80
2022/11/09 11:29:28;;;;;;;30.50;13.43;;;9.70;99.90;;;;;;5116224;28;20106;-80
2022/11/09 11:31:54;;;;;;;29.55;13.95;;;9.80;99.90;;;;;;5097662;28;20108;-79
2022/11/09 11:34:20;;;;;;;28.00;14.75;;;9.80;99.90;;;;;;5115835;28;20024;-80
2022/11/09 11:37:08;;;;;;;27.42;13.93;;;9.80;99.90;;;;;;5097481;28;20035;-80
2022/11/09 11:40:00;;;;;;;29.65;13.50;;;9.80;99.90;;;;;;5098250;28;20024;-79
2022/11/09 11:46:10;;;;;;;27.55;13.05;;;9.90;99.90;;;;;;5117910;28;20031;-80
2022/11/09 11:48:42;;;;;;;24.95;12.05;;;9.90;99.90;;;;;;5099071;28;20460;-79
2022/11/09 11:51:18;;;;;;;23.55;11.85;;;9.90;99.90;;;;;;5099330;28;20401;-79
2022/11/09 11:53:49;;;;;;;21.85;11.45;;;9.80;99.90;;;;;;5098938;28;20084;-79
2022/11/09 11:59:49;;;;;;;22.30;11.27;;;9.80;99.90;;;;;;5115615;28;20209;-78
2022/11/09 12:02:39;;;;;;;24.25;11.20;;;9.80;99.90;;;;;;5097334;28;20028;-79
2022/11/09 12:05:39;;;;;;;21.23;11.48;;;9.80;99.90;;;;;;5098191;28;20118;-79
2022/11/09 12:08:32;;;;;;;22.40;10.95;;;9.70;99.90;;;;;;5096796;28;20076;-79
2022/11/09 12:11:21;;;;;;;29.35;11.38;;;9.70;99.90;;;;;;5097538;28;20030;-79
2022/11/09 12:14:05;;;;;;;24.42;11.65;;;9.80;99.90;;;;;;5097723;28;20378;-79
2022/11/09 12:16:48;;;;;;;20.75;10.82;;;9.80;99.90;;;;;;5117373;28;20065;-79
2022/11/09 12:19:35;;;;;;;21.98;11.60;;;9.80;99.90;;;;;;5117091;28;20024;-79
2022/11/09 12:22:16;;;;;;;28.13;11.75;;;9.80;99.90;;;;;;5117690;28;20074;-79
2022/11/09 12:25:03;;;;;;;22.77;11.75;;;9.80;99.90;;;;;;5109014;28;20049;-80
2022/11/09 12:27:38;;;;;;;22.45;11.38;;;9.90;99.90;;;;;;5098849;28;20126;-79
2022/11/09 12:30:27;;;;;;;21.67;11.45;;;10.00;99.90;;;;;;5116934;28;20031;-80
2022/11/09 12:33:20;;;;;;;21.80;11.63;;;10.00;99.90;;;;;;5116326;28;20030;-79
2022/11/09 12:35:56;;;;;;;22.65;11.90;;;10.10;99.90;;;;;;5096829;28;20494;-79
2022/11/09 12:41:33;;;;;;;21.33;11.23;;;10.20;99.90;;;;;;5114367;28;20034;-80
2022/11/09 12:44:10;;;;;;;24.25;12.32;;;10.20;99.90;;;;;;5096512;28;20051;-80
2022/11/09 12:46:43;;;;;;;26.30;12.50;;;10.20;99.90;;;;;;5096637;28;20490;-80
2022/11/09 12:49:35;;;;;;;24.80;11.40;;;10.20;99.90;;;;;;5096622;28;20173;-80
2022/11/09 12:52:06;;;;;;;21.75;11.50;;;10.20;99.90;;;;;;5114086;28;20023;-80
2022/11/09 12:54:34;;;;;;;23.25;11.77;;;10.20;99.90;;;;;;5114467;28;20035;-80
2022/11/09 12:57:08;;;;;;;24.42;11.75;;;10.20;99.90;;;;;;5096032;28;20024;-80
2022/11/09 12:59:44;;;;;;;26.70;11.55;;;10.20;99.90;;;;;;5114056;28;20104;-80
2022/11/09 13:02:25;;;;;;;23.30;13.63;;;10.20;99.90;;;;;;5096645;28;20024;-81
2022/11/09 13:05:00;;;;;;;24.35;11.90;;;10.20;99.90;;;;;;5096037;28;20467;-80
2022/11/09 13:07:28;;;;;;;22.15;11.65;;;10.20;99.90;;;;;;5095813;28;20034;-80
2022/11/09 13:09:56;;;;;;;25.35;12.30;;;10.20;99.90;;;;;;5096169;28;20035;-80
2022/11/09 13:12:38;;;;;;;22.60;12.85;;;10.10;99.90;;;;;;5095890;28;20027;-80
2022/11/09 13:15:25;;;;;;;27.00;12.57;;;10.10;99.90;;;;;;5114070;28;20035;-80
2022/11/09 13:17:57;;;;;;;28.67;13.05;;;10.00;99.90;;;;;;5114630;28;20020;-82
2022/11/09 13:20:34;;;;;;;26.30;12.82;;;10.00;99.90;;;;;;5113882;28;20050;-78
2022/11/09 13:23:00;;;;;;;31.67;15.23;;;10.00;99.90;;;;;;5115542;28;20082;-81
2022/11/09 13:25:41;;;;;;;30.40;14.20;;;10.00;99.90;;;;;;5095868;28;20483;-80
2022/11/09 13:28:26;;;;;;;28.98;13.52;;;10.00;99.90;;;;;;5095852;28;20026;-73
2022/11/09 13:30:53;;;;;;;24.17;13.82;;;10.00;99.90;;;;;;5095693;28;20023;-76
2022/11/09 13:33:22;;;;;;;30.25;14.27;;;10.00;99.90;;;;;;5095959;28;20118;-78
2022/11/09 13:35:47;;;;;;;31.80;13.30;;;9.90;99.90;;;;;;5114126;28;20485;-76
2022/11/09 13:38:23;;;;;;;31.40;13.68;;;9.90;99.90;;;;;;5114238;28;20031;-77
2022/11/09 13:41:10;;;;;;;31.88;14.27;;;10.00;99.90;;;;;;5095883;28;20030;-77
2022/11/09 13:43:39;;;;;;;30.77;14.63;;;10.00;99.90;;;;;;5114054;28;20031;-77
2022/11/09 13:46:13;;;;;;;28.45;14.07;;;10.00;99.90;;;;;;5114759;28;20378;-76
2022/11/09 13:48:43;;;;;;;24.83;13.82;;;10.00;99.90;;;;;;5117517;28;20472;-77
2022/11/09 13:51:18;;;;;;;29.38;14.00;;;10.00;99.90;;;;;;5099553;28;20073;-77
2022/11/09 13:53:58;;;;;;;30.08;14.85;;;10.00;99.90;;;;;;5099273;28;20038;-79
2022/11/09 13:56:36;;;;;;;28.45;13.57;;;10.10;99.90;;;;;;5117607;28;20039;-77
2022/11/09 13:59:21;;;;;;;28.00;14.07;;;10.10;99.90;;;;;;5099384;28;20020;-80
2022/11/09 14:01:49;;;;;;;26.40;14.05;;;10.00;99.90;;;;;;5117301;28;20491;-80
2022/11/09 14:04:38;;;;;;;30.00;14.68;;;10.00;99.90;;;;;;5099160;28;20410;-77
2022/11/09 14:07:23;;;;;;;32.92;14.63;;;10.00;99.90;;;;;;5099260;28;20032;-78
2022/11/09 14:10:10;;;;;;;32.00;15.05;;;10.00;99.90;;;;;;5099344;28;20023;-78
2022/11/09 14:12:47;;;;;;;28.60;14.27;;;10.00;99.90;;;;;;5099117;28;20028;-77
2022/11/09 14:15:41;;;;;;;32.78;14.43;;;10.10;99.90;;;;;;5117454;28;20034;-78
2022/11/09 14:18:12;;;;;;;28.90;14.75;;;10.10;99.90;;;;;;5099047;28;20428;-78
2022/11/09 14:20:46;;;;;;;27.85;14.00;;;10.10;99.90;;;;;;5117049;28;20520;-78
2022/11/09 14:23:20;;;;;;;31.25;14.43;;;10.10;99.90;;;;;;5116945;28;20027;-77
2022/11/09 14:25:48;;;;;;;28.00;15.15;;;10.10;99.90;;;;;;5097850;28;20126;-78
2022/11/09 14:28:27;;;;;;;29.05;14.20;;;10.10;99.90;;;;;;5117009;28;20477;-78
2022/11/09 14:30:53;;;;;;;;;;;10.10;99.90;;;;;;5099083;28;20019;-78
2022/11/09 14:33:23;;;;;;;33.15;15.15;;;10.10;99.90;;;;;;5117229;28;20347;-78
2022/11/09 14:35:50;;;;;;;30.90;14.15;;;10.20;99.90;;;;;;5117126;28;20062;-77
2022/11/09 14:38:43;;;;;;;27.45;13.75;;;10.10;99.90;;;;;;5098591;28;20039;-77
2022/11/09 14:41:26;;;;;;;29.65;15.52;;;10.10;99.90;;;;;;5098594;28;20066;-78
2022/11/09 14:43:55;;;;;;;31.80;14.75;;;10.10;99.90;;;;;;5098665;28;20527;-77
2022/11/09 14:46:29;;;;;;;29.88;14.30;;;10.00;99.90;;;;;;5098300;28;20035;-77
2022/11/09 14:49:01;;;;;;;29.05;14.18;;;10.00;99.90;;;;;;5116622;28;20027;-77
2022/11/09 14:51:37;;;;;;;40.67;16.90;;;10.00;99.90;;;;;;5098368;28;20051;-78
2022/11/09 14:54:08;;;;;;;35.08;15.27;;;10.00;99.90;;;;;;5116615;28;20020;-77
2022/11/09 14:56:36;;;;;;;30.02;15.10;;;9.90;99.90;;;;;;5116441;28;20395;-78
2022/11/09 14:59:05;;;;;;;33.65;15.98;;;9.90;99.90;;;;;;5115656;28;20023;-78
2022/11/09 15:01:31;;;;;;;;;;;9.90;99.90;;;;;;5117155;28;20072;-78
2022/11/09 15:04:16;;;;;;;28.33;15.00;;;9.80;99.90;;;;;;5097986;28;19955;-78
2022/11/09 15:06:50;;;;;;;29.67;14.50;;;9.80;99.90;;;;;;5116414;28;20035;-78
2022/11/09 15:09:21;;;;;;;38.30;16.00;;;9.70;99.90;;;;;;5098583;28;20076;-78
2022/11/09 15:11:48;;;;;;;34.60;14.43;;;9.70;99.90;;;;;;5116303;28;20049;-77
2022/11/09 15:14:32;;;;;;;28.85;14.27;;;9.60;99.90;;;;;;5098323;28;20463;-77
2022/11/09 15:17:03;;;;;;;36.25;14.38;;;9.50;99.90;;;;;;5098145;28;20028;-78
2022/11/09 15:19:51;;;;;;;32.10;14.13;;;9.40;99.90;;;;;;5097868;28;20028;-77
2022/11/09 15:22:36;;;;;;;32.45;16.17;;;9.40;99.90;;;;;;5097777;28;20066;-77
2022/11/09 15:25:17;;;;;;;34.17;14.23;;;9.30;99.90;;;;;;5097354;28;20024;-77
2022/11/09 15:30:53;;;;;;;30.63;14.63;;;9.20;99.90;;;;;;5074368;28;20028;-78
2022/11/09 15:33:23;;;;;;;34.42;15.73;;;9.10;99.90;;;;;;5097794;28;20050;-77
2022/11/09 15:35:52;;;;;;;35.00;15.70;;;9.10;99.90;;;;;;5097869;28;20031;-77
2022/11/09 15:38:30;;;;;;;43.20;17.35;;;9.10;99.90;;;;;;5097286;28;20085;-78
2022/11/09 15:40:56;;;;;;;36.20;16.35;;;9.10;99.90;;;;;;5097414;28;20475;-78
2022/11/09 15:43:21;;;;;;;40.53;16.77;;;9.00;99.90;;;;;;5115950;28;20062;-78
2022/11/09 15:45:47;;;;;;;35.13;16.30;;;9.00;99.90;;;;;;5097889;28;20463;-78
2022/11/09 15:48:13;;;;;;;40.72;15.65;;;9.00;99.90;;;;;;5115651;28;20059;-77
2022/11/09 15:50:39;;;;;;;32.30;16.25;;;9.00;99.90;;;;;;5115770;28;20032;-77
2022/11/09 15:53:05;;;;;;;34.47;16.08;;;8.90;99.90;;;;;;5097020;28;20032;-78
2022/11/09 15:55:31;;;;;;;41.22;16.85;;;8.90;99.90;;;;;;5097191;28;20027;-77
2022/11/09 15:57:57;;;;;;;33.20;15.88;;;8.90;99.90;;;;;;5098375;28;20023;-77
2022/11/09 16:00:23;;;;;;;34.00;16.63;;;8.80;99.90;;;;;;5098796;28;20156;-78
2022/11/09 16:02:49;;;;;;;37.13;15.85;;;8.80;99.90;;;;;;5116620;28;20463;-75
2022/11/09 16:05:15;;;;;;;31.77;15.57;;;8.80;99.90;;;;;;5098948;28;20038;-75
2022/11/09 16:07:53;;;;;;;34.53;15.10;;;8.80;99.90;;;;;;5116506;28;20038;-76
2022/11/09 16:10:22;;;;;;;34.87;15.13;;;8.70;99.90;;;;;;5116045;28;20466;-76
2022/11/09 16:12:51;;;;;;;30.20;15.15;;;8.70;99.90;;;;;;5116944;28;20253;-76
2022/11/09 16:15:18;;;;;;;36.63;16.73;;;8.50;99.90;;;;;;5097420;28;20028;-74
2022/11/09 16:17:43;;;;;;;31.55;15.77;;;8.40;99.90;;;;;;5098528;28;20418;-80
2022/11/09 16:20:10;;;;;;;36.20;17.60;;;8.30;99.90;;;;;;5098691;28;20031;-75
2022/11/09 16:22:36;;;;;;;36.40;18.27;;;8.20;99.90;;;;;;5116152;28;20028;-77
2022/11/09 16:25:02;;;;;;;41.63;18.80;;;8.10;99.90;;;;;;5096734;27;20097;-78
2022/11/09 16:27:27;;;;;;;34.28;16.70;;;8.00;99.90;;;;;;5097711;28;20459;-77
2022/11/09 16:29:54;;;;;;;62.00;29.80;;;7.90;99.90;;;;;;5097774;28;20031;-75
2022/11/09 16:32:20;;;;;;;39.58;17.42;;;7.80;99.90;;;;;;5115340;28;20019;-76
2022/11/09 16:34:45;;;;;;;39.63;16.65;;;7.70;99.90;;;;;;5115876;28;20073;-78
2022/11/09 16:37:11;;;;;;;39.25;18.05;;;7.60;99.90;;;;;;5097817;28;20030;-76
2022/11/09 16:39:38;;;;;;;33.42;16.83;;;7.40;99.90;;;;;;5115661;28;20076;-78
2022/11/09 16:42:09;;;;;;;39.70;18.05;;;7.30;99.90;;;;;;5115034;28;20015;-76
2022/11/09 16:44:37;;;;;;;39.97;18.45;;;7.20;99.90;;;;;;5115761;28;20031;-76
2022/11/09 16:47:08;;;;;;;47.45;18.10;;;7.20;99.90;;;;;;5080041;28;20039;-76
2022/11/09 16:49:34;;;;;;;37.55;17.83;;;7.10;99.90;;;;;;5097215;28;20126;-76
2022/11/09 16:51:59;;;;;;;40.58;17.00;;;7.00;99.90;;;;;;5114985;28;20520;-77
2022/11/09 16:54:25;;;;;;;38.92;17.15;;;7.00;99.90;;;;;;5115757;28;20374;-76
2022/11/09 16:56:52;;;;;;;35.97;16.85;;;6.90;99.90;;;;;;5097308;28;20442;-75
2022/11/09 16:59:18;;;;;;;47.58;17.77;;;6.90;99.90;;;;;;5098095;28;20035;-79
2022/11/09 17:01:52;;;;;;;40.65;16.73;;;6.90;99.90;;;;;;5098161;28;20031;-77
2022/11/09 17:04:18;;;;;;;34.95;15.88;;;6.80;99.90;;;;;;5116527;28;20020;-76